Bowl coupling

KSS / KSE / KSA / slotted (one-piece)

The rigid couplings are used if there is no displacements or misalignment of the shafts to be connected.

  • Maximum torque up to 5000Nm, Speed up to 8000rpm
  • Inner-Ø up to 80mm, Special designs on request
  • In stock, Top prices from CHF 13.20
  • Description
  • Downloads
  • Inquiry

KSS (steel)
KSE (stainless steel)
KSA (aluminium)

 

Features

• Torsionally stiff and backlash-free
• Wear- and maintenance-free
• Compact design
• Simple, safe and fast assembly
• No damage to the shaft
• With screw lock
• Bright finish
• On request with keyway DIN6885/1
• Temperature range -40°C to +175°C
• Maximum speed up to 8'000 rpm
• Also available in aluminium if required
• Various options, special designs and other dimensions available on request!

Product Inquiry


Product


Technical specifications, properties, environmental influences, etc.

This information is important for the design of the product. If it is an order, they serve to verify your product choice.

Article Nr Designation Material Max. Torque [Nm] Outside diameter [mm] Inside diameter [mm] Length [mm] Availability Price Unit of measure Files Add to cart Add to wishlist
1000105196 KSS-6Steel3018630Available CHF 13,20 pcs
1000105197 KSS-8Steel5024835Available CHF 13,40 pcs
1000105184 KSS-10Steel100291045Available CHF 13,70 pcs
1000105185 KSS-12Steel105291245Available CHF 13,90 pcs
1000105186 KSS-14Steel180341450Available CHF 16,50 pcs
1000105187 KSS-15Steel190341550Available CHF 16,70 pcs
1000105188 KSS-16Steel200341650Available CHF 16,90 pcs
1000105189 KSS-17Steel210341750Available CHF 17,00 pcs
1000105190 KSS-19Steel300421965Available CHF 18,70 pcs
1000105191 KSS-20Steel350422065Available CHF 18,80 pcs
1000105192 KSS-25Steel400452575Available CHF 21,10 pcs
1000105193 KSS-30Steel475533083Available CHF 26,30 pcs
1000107611 KSS-35Steel1100673595Available CHF 47,70 pcs
1000105194 KSS-40Steel13007740108Available CHF 58,20 pcs
1000105195 KSS-50Steel22008550124Available CHF 76,70 pcs
1000107612 KSS-60Steel300010060150Unavailable CHF 140,40 pcs
1000107613 KSS-70Steel400012270220Unavailable CHF 265,90 pcs
1000107614 KSS-80Steel500014080220Unavailable CHF 334,50 pcs
1000105182 KSE-6Stainless steel1218630Available CHF 24,10 pcs
1000105183 KSE-8Stainless steel1624835Available CHF 26,30 pcs
1000105170 KSE-10Stainless steel25291045Available CHF 30,10 pcs
1000105171 KSE-12Stainless steel32291245Available CHF 30,20 pcs
1000105172 KSE-14Stainless steel42341450Available CHF 38,60 pcs
1000105173 KSE-15Stainless steel50341550Available CHF 38,90 pcs
1000105174 KSE-16Stainless steel60341650Available CHF 39,10 pcs
1000105175 KSE-17Stainless steel70341750Available CHF 39,40 pcs
1000105176 KSE-19Stainless steel90421965Available CHF 45,20 pcs
1000105177 KSE-20Stainless steel100422065Available CHF 45,30 pcs
1000105178 KSE-25Stainless steel110452575Available CHF 54,50 pcs
1000105179 KSE-30Stainless steel150533083Available CHF 64,20 pcs
1000107619 KSE-35Edelstahl330673595Unavailable CHF 121,80 pcs
1000105180 KSE-40Stainless steel4007740108Available CHF 148,10 pcs
1000105181 KSE-50Stainless steel6908550124Available CHF 206,40 pcs
1000107620 KSE-60Edelstahl84010060150Unavailable CHF 224,60 pcs
1000107621 KSE-70Edelstahl150012270220Unavailable CHF 372,20 pcs
1000107622 KSE-80Edelstahl180014080220Unavailable CHF 453,10 pcs
1000105162 KSA-6Aluminium3018630Available CHF 13,20 pcs
1000105163 KSA-8Aluminium5024835Available CHF 15,00 pcs
1000105150 KSA-10Aluminium100291045Available CHF 15,20 pcs
1000105151 KSA-12Aluminium105291245Available CHF 15,40 pcs
1000105152 KSA-14Aluminium180341450Available CHF 19,20 pcs
1000105153 KSA-15Aluminium190341550Available CHF 19,30 pcs
1000105154 KSA-16Aluminium200341650Available CHF 19,50 pcs
1000105155 KSA-17Aluminium210341750Available CHF 19,60 pcs
1000105156 KSA-19Aluminium300421965Available CHF 24,10 pcs
1000105157 KSA-20Aluminium350422065Available CHF 24,20 pcs
1000105158 KSA-25Aluminium400452575Available CHF 32,30 pcs
1000105159 KSA-30Aluminium480533083Available CHF 54,30 pcs
1000107623 KSA-35Aluminium1100673595Unavailable CHF 76,00 pcs
1000105160 KSA-40Aluminium13007740108Available CHF 87,70 pcs
1000105161 KSA-50Aluminium22008550124Available CHF 113,00 pcs
1000107624 KSA-60Aluminium300010060150Unavailable CHF 0,00 pcs
1000107625 KSA-70Aluminium400012270220Unavailable CHF 0,00 pcs
1000107626 KSA-80Aluminium500014080220Unavailable CHF 0,00 pcs
was successfully added yo your cart
was successfully added yo your inquiry list
Go to inquiry list

Prices are non-binding recommended retail prices, excl. VAT. For further information on our web store, please see "Web store details".